sensor_id;sensor_type;location;lat;lon;timestamp;P1;durP1;ratioP1;P2;durP2;ratioP2
27804;SDS011;15183;51.350;11.102;2022-10-31T00:01:19;12.27;;;6.13;;
27804;SDS011;15183;51.350;11.102;2022-10-31T00:03:52;9.48;;;6.05;;
27804;SDS011;15183;51.350;11.102;2022-10-31T00:06:19;6.47;;;4.03;;
27804;SDS011;15183;51.350;11.102;2022-10-31T00:08:51;9.32;;;5.53;;
27804;SDS011;15183;51.350;11.102;2022-10-31T00:11:20;10.25;;;4.15;;
27804;SDS011;15183;51.350;11.102;2022-10-31T00:13:47;7.18;;;5.10;;
27804;SDS011;15183;51.350;11.102;2022-10-31T00:16:17;7.90;;;5.50;;
27804;SDS011;15183;51.350;11.102;2022-10-31T00:18:51;8.55;;;4.90;;
27804;SDS011;15183;51.350;11.102;2022-10-31T00:21:19;10.80;;;5.50;;
27804;SDS011;15183;51.350;11.102;2022-10-31T00:23:46;6.72;;;4.93;;
27804;SDS011;15183;51.350;11.102;2022-10-31T00:26:13;11.27;;;5.75;;
27804;SDS011;15183;51.350;11.102;2022-10-31T00:28:40;9.18;;;5.25;;
27804;SDS011;15183;51.350;11.102;2022-10-31T00:31:08;7.95;;;5.40;;
27804;SDS011;15183;51.350;11.102;2022-10-31T00:33:36;10.25;;;4.85;;
27804;SDS011;15183;51.350;11.102;2022-10-31T00:36:05;8.73;;;5.43;;
27804;SDS011;15183;51.350;11.102;2022-10-31T00:38:33;7.00;;;4.35;;
27804;SDS011;15183;51.350;11.102;2022-10-31T00:40:59;10.73;;;4.15;;
27804;SDS011;15183;51.350;11.102;2022-10-31T00:43:26;6.57;;;3.83;;
27804;SDS011;15183;51.350;11.102;2022-10-31T00:45:52;7.60;;;4.72;;
27804;SDS011;15183;51.350;11.102;2022-10-31T00:48:18;7.82;;;5.20;;
27804;SDS011;15183;51.350;11.102;2022-10-31T00:50:45;7.78;;;4.93;;
27804;SDS011;15183;51.350;11.102;2022-10-31T00:53:11;7.13;;;5.22;;
27804;SDS011;15183;51.350;11.102;2022-10-31T00:55:38;6.32;;;4.63;;
27804;SDS011;15183;51.350;11.102;2022-10-31T00:58:04;5.85;;;4.78;;
27804;SDS011;15183;51.350;11.102;2022-10-31T01:00:31;7.38;;;5.20;;
27804;SDS011;15183;51.350;11.102;2022-10-31T01:02:57;7.25;;;5.72;;
27804;SDS011;15183;51.350;11.102;2022-10-31T01:05:23;8.10;;;4.70;;
27804;SDS011;15183;51.350;11.102;2022-10-31T01:07:50;7.63;;;5.25;;
27804;SDS011;15183;51.350;11.102;2022-10-31T01:10:16;11.25;;;5.78;;
27804;SDS011;15183;51.350;11.102;2022-10-31T01:12:45;6.38;;;4.35;;
27804;SDS011;15183;51.350;11.102;2022-10-31T01:15:16;9.00;;;5.10;;
27804;SDS011;15183;51.350;11.102;2022-10-31T01:17:47;7.63;;;5.10;;
27804;SDS011;15183;51.350;11.102;2022-10-31T01:20:14;7.43;;;5.32;;
27804;SDS011;15183;51.350;11.102;2022-10-31T01:22:42;7.45;;;5.53;;
27804;SDS011;15183;51.350;11.102;2022-10-31T01:25:09;9.52;;;5.35;;
27804;SDS011;15183;51.350;11.102;2022-10-31T01:27:36;12.52;;;5.40;;
27804;SDS011;15183;51.350;11.102;2022-10-31T01:30:02;6.28;;;4.25;;
27804;SDS011;15183;51.350;11.102;2022-10-31T01:32:30;7.13;;;4.22;;
27804;SDS011;15183;51.350;11.102;2022-10-31T01:34:57;7.60;;;4.40;;
27804;SDS011;15183;51.350;11.102;2022-10-31T01:37:24;6.18;;;4.00;;
27804;SDS011;15183;51.350;11.102;2022-10-31T01:39:50;8.52;;;4.32;;
27804;SDS011;15183;51.350;11.102;2022-10-31T01:42:21;7.82;;;4.80;;
27804;SDS011;15183;51.350;11.102;2022-10-31T01:44:56;9.05;;;4.20;;
27804;SDS011;15183;51.350;11.102;2022-10-31T01:47:30;10.20;;;5.22;;
27804;SDS011;15183;51.350;11.102;2022-10-31T01:50:15;8.68;;;4.45;;
27804;SDS011;15183;51.350;11.102;2022-10-31T01:53:09;7.20;;;4.55;;
27804;SDS011;15183;51.350;11.102;2022-10-31T01:55:38;9.75;;;4.38;;
27804;SDS011;15183;51.350;11.102;2022-10-31T01:58:14;5.53;;;4.00;;
27804;SDS011;15183;51.350;11.102;2022-10-31T02:00:46;7.78;;;5.15;;
27804;SDS011;15183;51.350;11.102;2022-10-31T02:03:19;7.68;;;5.45;;
27804;SDS011;15183;51.350;11.102;2022-10-31T02:05:47;9.82;;;5.60;;
27804;SDS011;15183;51.350;11.102;2022-10-31T02:08:26;10.98;;;5.20;;
27804;SDS011;15183;51.350;11.102;2022-10-31T02:10:59;9.60;;;6.10;;
27804;SDS011;15183;51.350;11.102;2022-10-31T02:13:27;8.50;;;5.32;;
27804;SDS011;15183;51.350;11.102;2022-10-31T02:15:56;7.10;;;5.20;;
27804;SDS011;15183;51.350;11.102;2022-10-31T02:18:24;9.27;;;5.32;;
27804;SDS011;15183;51.350;11.102;2022-10-31T02:21:07;10.80;;;5.20;;
27804;SDS011;15183;51.350;11.102;2022-10-31T02:23:45;6.40;;;4.32;;
27804;SDS011;15183;51.350;11.102;2022-10-31T02:26:49;4.95;;;3.55;;
27804;SDS011;15183;51.350;11.102;2022-10-31T02:29:45;9.60;;;5.20;;
27804;SDS011;15183;51.350;11.102;2022-10-31T02:32:27;12.65;;;4.93;;
27804;SDS011;15183;51.350;11.102;2022-10-31T02:41:04;7.60;;;3.90;;
27804;SDS011;15183;51.350;11.102;2022-10-31T02:46:38;7.55;;;4.13;;
27804;SDS011;15183;51.350;11.102;2022-10-31T02:49:50;7.50;;;4.25;;
27804;SDS011;15183;51.350;11.102;2022-10-31T02:52:36;9.10;;;3.92;;
27804;SDS011;15183;51.350;11.102;2022-10-31T02:55:40;4.97;;;3.70;;
27804;SDS011;15183;51.350;11.102;2022-10-31T02:58:06;7.22;;;4.13;;
27804;SDS011;15183;51.350;11.102;2022-10-31T03:00:42;6.65;;;4.97;;
27804;SDS011;15183;51.350;11.102;2022-10-31T03:03:50;10.07;;;5.07;;
27804;SDS011;15183;51.350;11.102;2022-10-31T03:13:16;7.15;;;4.90;;
27804;SDS011;15183;51.350;11.102;2022-10-31T03:16:17;5.30;;;4.38;;
27804;SDS011;15183;51.350;11.102;2022-10-31T03:18:57;9.85;;;4.82;;
27804;SDS011;15183;51.350;11.102;2022-10-31T03:21:27;6.90;;;4.45;;
27804;SDS011;15183;51.350;11.102;2022-10-31T03:24:03;7.40;;;4.50;;
27804;SDS011;15183;51.350;11.102;2022-10-31T03:26:34;7.43;;;4.35;;
27804;SDS011;15183;51.350;11.102;2022-10-31T03:29:08;16.17;;;5.30;;
27804;SDS011;15183;51.350;11.102;2022-10-31T03:31:41;5.93;;;3.85;;
27804;SDS011;15183;51.350;11.102;2022-10-31T03:34:15;6.22;;;3.70;;
27804;SDS011;15183;51.350;11.102;2022-10-31T03:36:43;7.18;;;3.60;;
27804;SDS011;15183;51.350;11.102;2022-10-31T03:39:13;7.07;;;3.90;;
27804;SDS011;15183;51.350;11.102;2022-10-31T03:41:45;9.90;;;5.03;;
27804;SDS011;15183;51.350;11.102;2022-10-31T03:44:27;8.38;;;4.22;;
27804;SDS011;15183;51.350;11.102;2022-10-31T03:46:57;6.95;;;4.15;;
27804;SDS011;15183;51.350;11.102;2022-10-31T03:49:25;12.00;;;4.30;;
27804;SDS011;15183;51.350;11.102;2022-10-31T03:55:40;7.10;;;4.18;;
27804;SDS011;15183;51.350;11.102;2022-10-31T04:00:27;7.88;;;4.20;;
27804;SDS011;15183;51.350;11.102;2022-10-31T04:03:06;8.15;;;4.45;;
27804;SDS011;15183;51.350;11.102;2022-10-31T04:05:38;6.32;;;4.30;;
27804;SDS011;15183;51.350;11.102;2022-10-31T04:08:09;6.50;;;4.35;;
27804;SDS011;15183;51.350;11.102;2022-10-31T04:10:40;10.77;;;5.03;;
27804;SDS011;15183;51.350;11.102;2022-10-31T04:13:11;7.25;;;3.30;;
27804;SDS011;15183;51.350;11.102;2022-10-31T04:15:41;9.23;;;4.07;;
27804;SDS011;15183;51.350;11.102;2022-10-31T04:18:09;4.25;;;3.25;;
27804;SDS011;15183;51.350;11.102;2022-10-31T04:20:36;5.13;;;3.30;;
27804;SDS011;15183;51.350;11.102;2022-10-31T04:23:11;8.77;;;3.97;;
27804;SDS011;15183;51.350;11.102;2022-10-31T04:25:48;8.27;;;3.80;;
27804;SDS011;15183;51.350;11.102;2022-10-31T04:28:14;5.72;;;3.70;;
27804;SDS011;15183;51.350;11.102;2022-10-31T04:30:40;8.50;;;4.43;;
27804;SDS011;15183;51.350;11.102;2022-10-31T04:33:07;5.40;;;3.80;;
27804;SDS011;15183;51.350;11.102;2022-10-31T04:35:34;7.63;;;4.32;;
27804;SDS011;15183;51.350;11.102;2022-10-31T04:38:00;6.80;;;4.70;;
27804;SDS011;15183;51.350;11.102;2022-10-31T04:40:27;7.20;;;4.68;;
27804;SDS011;15183;51.350;11.102;2022-10-31T04:42:53;7.97;;;4.97;;
27804;SDS011;15183;51.350;11.102;2022-10-31T04:45:19;5.10;;;4.25;;
27804;SDS011;15183;51.350;11.102;2022-10-31T04:47:46;6.30;;;3.50;;
27804;SDS011;15183;51.350;11.102;2022-10-31T04:50:12;4.60;;;3.10;;
27804;SDS011;15183;51.350;11.102;2022-10-31T04:52:40;7.57;;;4.47;;
27804;SDS011;15183;51.350;11.102;2022-10-31T04:55:08;7.78;;;3.78;;
27804;SDS011;15183;51.350;11.102;2022-10-31T04:57:45;4.80;;;3.25;;
27804;SDS011;15183;51.350;11.102;2022-10-31T05:00:15;4.82;;;3.38;;
27804;SDS011;15183;51.350;11.102;2022-10-31T05:02:45;7.50;;;4.10;;
27804;SDS011;15183;51.350;11.102;2022-10-31T05:05:24;8.27;;;4.15;;
27804;SDS011;15183;51.350;11.102;2022-10-31T05:07:53;8.60;;;4.30;;
27804;SDS011;15183;51.350;11.102;2022-10-31T05:10:22;7.25;;;4.13;;
27804;SDS011;15183;51.350;11.102;2022-10-31T05:12:55;7.72;;;4.57;;
27804;SDS011;15183;51.350;11.102;2022-10-31T05:15:27;7.27;;;3.40;;
27804;SDS011;15183;51.350;11.102;2022-10-31T05:17:54;11.80;;;3.70;;
27804;SDS011;15183;51.350;11.102;2022-10-31T05:20:23;7.38;;;3.80;;
27804;SDS011;15183;51.350;11.102;2022-10-31T05:22:54;6.97;;;3.17;;
27804;SDS011;15183;51.350;11.102;2022-10-31T05:25:22;7.65;;;3.80;;
27804;SDS011;15183;51.350;11.102;2022-10-31T05:27:52;5.70;;;3.42;;
27804;SDS011;15183;51.350;11.102;2022-10-31T05:30:20;4.22;;;3.53;;
27804;SDS011;15183;51.350;11.102;2022-10-31T05:32:50;5.85;;;3.80;;
27804;SDS011;15183;51.350;11.102;2022-10-31T05:35:21;9.20;;;4.55;;
27804;SDS011;15183;51.350;11.102;2022-10-31T05:37:54;10.35;;;5.93;;
27804;SDS011;15183;51.350;11.102;2022-10-31T05:40:21;9.45;;;5.82;;
27804;SDS011;15183;51.350;11.102;2022-10-31T05:42:50;10.32;;;7.30;;
27804;SDS011;15183;51.350;11.102;2022-10-31T05:45:18;13.13;;;6.60;;
27804;SDS011;15183;51.350;11.102;2022-10-31T05:47:50;10.45;;;5.45;;
27804;SDS011;15183;51.350;11.102;2022-10-31T05:50:22;8.23;;;4.15;;
27804;SDS011;15183;51.350;11.102;2022-10-31T05:52:59;8.55;;;4.07;;
27804;SDS011;15183;51.350;11.102;2022-10-31T05:55:29;8.73;;;4.20;;
27804;SDS011;15183;51.350;11.102;2022-10-31T05:57:56;6.72;;;4.40;;
27804;SDS011;15183;51.350;11.102;2022-10-31T06:00:26;6.57;;;4.45;;
27804;SDS011;15183;51.350;11.102;2022-10-31T06:02:59;7.30;;;4.45;;
27804;SDS011;15183;51.350;11.102;2022-10-31T06:10:23;7.40;;;3.60;;
27804;SDS011;15183;51.350;11.102;2022-10-31T06:12:50;8.35;;;3.72;;
27804;SDS011;15183;51.350;11.102;2022-10-31T06:15:17;5.43;;;4.07;;
27804;SDS011;15183;51.350;11.102;2022-10-31T06:17:43;5.63;;;3.60;;
27804;SDS011;15183;51.350;11.102;2022-10-31T06:20:10;5.85;;;3.83;;
27804;SDS011;15183;51.350;11.102;2022-10-31T06:22:37;12.48;;;6.90;;
27804;SDS011;15183;51.350;11.102;2022-10-31T06:25:03;10.15;;;6.68;;
27804;SDS011;15183;51.350;11.102;2022-10-31T06:27:30;7.88;;;5.32;;
27804;SDS011;15183;51.350;11.102;2022-10-31T06:29:56;10.18;;;5.45;;
27804;SDS011;15183;51.350;11.102;2022-10-31T06:32:23;19.67;;;9.60;;
27804;SDS011;15183;51.350;11.102;2022-10-31T06:34:49;30.02;;;15.73;;
27804;SDS011;15183;51.350;11.102;2022-10-31T06:37:15;26.85;;;14.63;;
27804;SDS011;15183;51.350;11.102;2022-10-31T06:39:42;34.22;;;16.55;;
27804;SDS011;15183;51.350;11.102;2022-10-31T06:42:08;34.25;;;17.10;;
27804;SDS011;15183;51.350;11.102;2022-10-31T06:44:35;29.73;;;15.50;;
27804;SDS011;15183;51.350;11.102;2022-10-31T06:47:01;30.80;;;16.33;;
27804;SDS011;15183;51.350;11.102;2022-10-31T06:49:28;19.17;;;10.20;;
27804;SDS011;15183;51.350;11.102;2022-10-31T06:51:54;24.83;;;12.25;;
27804;SDS011;15183;51.350;11.102;2022-10-31T06:54:21;12.77;;;7.13;;
27804;SDS011;15183;51.350;11.102;2022-10-31T06:56:47;19.08;;;10.65;;
27804;SDS011;15183;51.350;11.102;2022-10-31T06:59:14;9.93;;;6.35;;
27804;SDS011;15183;51.350;11.102;2022-10-31T07:01:41;19.25;;;9.80;;
27804;SDS011;15183;51.350;11.102;2022-10-31T07:04:11;17.00;;;8.45;;
27804;SDS011;15183;51.350;11.102;2022-10-31T07:06:37;22.92;;;12.15;;
27804;SDS011;15183;51.350;11.102;2022-10-31T07:09:04;20.52;;;10.85;;
27804;SDS011;15183;51.350;11.102;2022-10-31T07:11:31;20.95;;;11.07;;
27804;SDS011;15183;51.350;11.102;2022-10-31T07:13:57;14.70;;;8.50;;
27804;SDS011;15183;51.350;11.102;2022-10-31T07:16:24;26.23;;;13.40;;
27804;SDS011;15183;51.350;11.102;2022-10-31T07:18:50;16.63;;;9.40;;
27804;SDS011;15183;51.350;11.102;2022-10-31T07:21:17;33.38;;;15.95;;
27804;SDS011;15183;51.350;11.102;2022-10-31T07:23:43;33.83;;;17.23;;
27804;SDS011;15183;51.350;11.102;2022-10-31T07:26:12;30.52;;;15.35;;
27804;SDS011;15183;51.350;11.102;2022-10-31T07:28:38;26.27;;;13.57;;
27804;SDS011;15183;51.350;11.102;2022-10-31T07:31:05;16.00;;;9.40;;
27804;SDS011;15183;51.350;11.102;2022-10-31T07:33:31;24.23;;;12.75;;
27804;SDS011;15183;51.350;11.102;2022-10-31T07:35:58;16.30;;;10.02;;
27804;SDS011;15183;51.350;11.102;2022-10-31T07:38:25;16.20;;;9.10;;
27804;SDS011;15183;51.350;11.102;2022-10-31T07:40:52;22.38;;;11.05;;
27804;SDS011;15183;51.350;11.102;2022-10-31T07:43:18;29.33;;;13.60;;
27804;SDS011;15183;51.350;11.102;2022-10-31T07:45:48;31.52;;;17.88;;
27804;SDS011;15183;51.350;11.102;2022-10-31T07:48:17;31.52;;;18.33;;
27804;SDS011;15183;51.350;11.102;2022-10-31T07:50:44;18.42;;;10.57;;
27804;SDS011;15183;51.350;11.102;2022-10-31T07:53:12;32.00;;;14.70;;
27804;SDS011;15183;51.350;11.102;2022-10-31T07:55:39;27.67;;;15.38;;
27804;SDS011;15183;51.350;11.102;2022-10-31T07:58:07;29.00;;;14.45;;
27804;SDS011;15183;51.350;11.102;2022-10-31T08:00:40;25.50;;;13.70;;
27804;SDS011;15183;51.350;11.102;2022-10-31T08:03:13;29.38;;;14.60;;
27804;SDS011;15183;51.350;11.102;2022-10-31T08:05:42;33.50;;;18.25;;
27804;SDS011;15183;51.350;11.102;2022-10-31T08:08:11;41.00;;;20.73;;
27804;SDS011;15183;51.350;11.102;2022-10-31T08:10:39;35.08;;;18.77;;
27804;SDS011;15183;51.350;11.102;2022-10-31T08:13:07;35.55;;;20.20;;
27804;SDS011;15183;51.350;11.102;2022-10-31T08:15:36;39.95;;;21.45;;
27804;SDS011;15183;51.350;11.102;2022-10-31T08:18:05;42.10;;;24.48;;
27804;SDS011;15183;51.350;11.102;2022-10-31T08:20:36;30.02;;;17.35;;
27804;SDS011;15183;51.350;11.102;2022-10-31T08:23:03;38.80;;;20.60;;
27804;SDS011;15183;51.350;11.102;2022-10-31T08:25:31;32.30;;;17.35;;
27804;SDS011;15183;51.350;11.102;2022-10-31T08:27:59;15.70;;;9.65;;
27804;SDS011;15183;51.350;11.102;2022-10-31T08:30:27;14.00;;;6.82;;
27804;SDS011;15183;51.350;11.102;2022-10-31T08:33:01;11.15;;;6.38;;
27804;SDS011;15183;51.350;11.102;2022-10-31T08:35:38;19.38;;;9.40;;
27804;SDS011;15183;51.350;11.102;2022-10-31T08:38:05;21.42;;;11.15;;
27804;SDS011;15183;51.350;11.102;2022-10-31T08:40:35;11.25;;;5.60;;
27804;SDS011;15183;51.350;11.102;2022-10-31T08:43:03;22.08;;;10.80;;
27804;SDS011;15183;51.350;11.102;2022-10-31T08:45:36;12.90;;;5.97;;
27804;SDS011;15183;51.350;11.102;2022-10-31T08:48:04;21.35;;;11.68;;
27804;SDS011;15183;51.350;11.102;2022-10-31T08:50:35;27.98;;;13.98;;
27804;SDS011;15183;51.350;11.102;2022-10-31T08:53:03;20.38;;;9.48;;
27804;SDS011;15183;51.350;11.102;2022-10-31T08:55:35;14.27;;;8.00;;
27804;SDS011;15183;51.350;11.102;2022-10-31T08:58:04;14.80;;;7.72;;
27804;SDS011;15183;51.350;11.102;2022-10-31T09:00:34;9.32;;;5.97;;
27804;SDS011;15183;51.350;11.102;2022-10-31T09:03:05;11.85;;;7.35;;
27804;SDS011;15183;51.350;11.102;2022-10-31T09:05:36;24.43;;;13.47;;
27804;SDS011;15183;51.350;11.102;2022-10-31T09:08:03;18.35;;;11.05;;
27804;SDS011;15183;51.350;11.102;2022-10-31T09:10:32;16.13;;;8.43;;
27804;SDS011;15183;51.350;11.102;2022-10-31T09:13:02;21.63;;;12.05;;
27804;SDS011;15183;51.350;11.102;2022-10-31T09:15:34;12.52;;;8.07;;
27804;SDS011;15183;51.350;11.102;2022-10-31T09:18:04;17.17;;;7.88;;
27804;SDS011;15183;51.350;11.102;2022-10-31T09:20:32;16.45;;;10.00;;
27804;SDS011;15183;51.350;11.102;2022-10-31T09:23:01;10.82;;;6.45;;
27804;SDS011;15183;51.350;11.102;2022-10-31T09:25:34;12.07;;;6.30;;
27804;SDS011;15183;51.350;11.102;2022-10-31T09:28:01;10.77;;;6.03;;
27804;SDS011;15183;51.350;11.102;2022-10-31T09:30:31;10.75;;;6.20;;
27804;SDS011;15183;51.350;11.102;2022-10-31T09:33:00;19.83;;;11.00;;
27804;SDS011;15183;51.350;11.102;2022-10-31T09:35:46;13.85;;;8.55;;
27804;SDS011;15183;51.350;11.102;2022-10-31T09:38:17;8.50;;;5.40;;
27804;SDS011;15183;51.350;11.102;2022-10-31T09:41:01;15.38;;;7.30;;
27804;SDS011;15183;51.350;11.102;2022-10-31T09:50:22;10.43;;;7.20;;
27804;SDS011;15183;51.350;11.102;2022-10-31T09:53:05;9.55;;;5.75;;
27804;SDS011;15183;51.350;11.102;2022-10-31T09:55:51;9.93;;;5.55;;
27804;SDS011;15183;51.350;11.102;2022-10-31T09:58:20;15.13;;;6.38;;
27804;SDS011;15183;51.350;11.102;2022-10-31T10:00:56;18.40;;;8.88;;
27804;SDS011;15183;51.350;11.102;2022-10-31T10:03:39;15.55;;;7.93;;
27804;SDS011;15183;51.350;11.102;2022-10-31T10:06:19;7.95;;;6.05;;
27804;SDS011;15183;51.350;11.102;2022-10-31T10:08:54;8.38;;;4.90;;
27804;SDS011;15183;51.350;11.102;2022-10-31T10:23:00;15.32;;;8.05;;
27804;SDS011;15183;51.350;11.102;2022-10-31T10:25:49;8.68;;;6.28;;
27804;SDS011;15183;51.350;11.102;2022-10-31T10:28:38;10.77;;;5.10;;
27804;SDS011;15183;51.350;11.102;2022-10-31T10:31:16;11.30;;;5.38;;
27804;SDS011;15183;51.350;11.102;2022-10-31T10:36:26;12.52;;;6.60;;
27804;SDS011;15183;51.350;11.102;2022-10-31T10:41:49;11.10;;;5.35;;
27804;SDS011;15183;51.350;11.102;2022-10-31T10:44:38;17.15;;;9.88;;
27804;SDS011;15183;51.350;11.102;2022-10-31T10:47:41;15.68;;;8.40;;
27804;SDS011;15183;51.350;11.102;2022-10-31T10:50:20;13.48;;;7.30;;
27804;SDS011;15183;51.350;11.102;2022-10-31T10:58:56;13.40;;;5.75;;
27804;SDS011;15183;51.350;11.102;2022-10-31T11:01:23;16.35;;;5.70;;
27804;SDS011;15183;51.350;11.102;2022-10-31T11:03:51;9.73;;;5.25;;
27804;SDS011;15183;51.350;11.102;2022-10-31T11:06:18;11.70;;;5.32;;
27804;SDS011;15183;51.350;11.102;2022-10-31T11:08:51;13.48;;;6.68;;
27804;SDS011;15183;51.350;11.102;2022-10-31T11:11:31;12.60;;;6.85;;
27804;SDS011;15183;51.350;11.102;2022-10-31T11:14:11;15.95;;;6.63;;
27804;SDS011;15183;51.350;11.102;2022-10-31T11:16:42;15.52;;;6.72;;
27804;SDS011;15183;51.350;11.102;2022-10-31T11:19:15;11.68;;;6.38;;
27804;SDS011;15183;51.350;11.102;2022-10-31T11:21:52;12.68;;;6.50;;
27804;SDS011;15183;51.350;11.102;2022-10-31T11:27:03;19.52;;;10.85;;
27804;SDS011;15183;51.350;11.102;2022-10-31T11:29:47;16.58;;;9.48;;
27804;SDS011;15183;51.350;11.102;2022-10-31T11:32:24;16.08;;;10.75;;
27804;SDS011;15183;51.350;11.102;2022-10-31T11:34:53;25.05;;;13.88;;
27804;SDS011;15183;51.350;11.102;2022-10-31T11:37:27;21.15;;;13.40;;
27804;SDS011;15183;51.350;11.102;2022-10-31T11:40:03;22.58;;;13.82;;
27804;SDS011;15183;51.350;11.102;2022-10-31T11:42:39;21.98;;;12.23;;
27804;SDS011;15183;51.350;11.102;2022-10-31T11:45:17;38.15;;;22.92;;
27804;SDS011;15183;51.350;11.102;2022-10-31T11:48:02;36.55;;;23.25;;
27804;SDS011;15183;51.350;11.102;2022-10-31T11:50:47;27.95;;;18.65;;
27804;SDS011;15183;51.350;11.102;2022-10-31T11:53:31;26.33;;;16.05;;
27804;SDS011;15183;51.350;11.102;2022-10-31T11:56:00;28.17;;;14.75;;
27804;SDS011;15183;51.350;11.102;2022-10-31T11:58:42;24.63;;;14.52;;
27804;SDS011;15183;51.350;11.102;2022-10-31T12:01:25;20.80;;;12.82;;
27804;SDS011;15183;51.350;11.102;2022-10-31T12:03:57;20.17;;;11.27;;
27804;SDS011;15183;51.350;11.102;2022-10-31T12:06:38;22.73;;;12.23;;
27804;SDS011;15183;51.350;11.102;2022-10-31T12:35:38;28.00;;;17.42;;
27804;SDS011;15183;51.350;11.102;2022-10-31T12:49:07;28.80;;;14.50;;
27804;SDS011;15183;51.350;11.102;2022-10-31T12:58:01;24.50;;;15.57;;
27804;SDS011;15183;51.350;11.102;2022-10-31T13:01:06;27.13;;;15.75;;
27804;SDS011;15183;51.350;11.102;2022-10-31T13:06:35;26.92;;;15.43;;
27804;SDS011;15183;51.350;11.102;2022-10-31T13:09:07;21.95;;;15.68;;
27804;SDS011;15183;51.350;11.102;2022-10-31T13:11:45;31.38;;;16.27;;
27804;SDS011;15183;51.350;11.102;2022-10-31T13:14:26;25.05;;;15.68;;
27804;SDS011;15183;51.350;11.102;2022-10-31T13:25:59;26.92;;;16.73;;
27804;SDS011;15183;51.350;11.102;2022-10-31T13:31:13;31.52;;;19.08;;
27804;SDS011;15183;51.350;11.102;2022-10-31T13:33:44;26.65;;;16.77;;
27804;SDS011;15183;51.350;11.102;2022-10-31T13:36:19;23.73;;;17.05;;
27804;SDS011;15183;51.350;11.102;2022-10-31T13:42:15;24.40;;;17.55;;
27804;SDS011;15183;51.350;11.102;2022-10-31T13:45:22;30.67;;;20.17;;
27804;SDS011;15183;51.350;11.102;2022-10-31T13:50:42;26.85;;;17.27;;
27804;SDS011;15183;51.350;11.102;2022-10-31T13:53:21;29.83;;;17.63;;
27804;SDS011;15183;51.350;11.102;2022-10-31T14:01:34;29.88;;;17.70;;
27804;SDS011;15183;51.350;11.102;2022-10-31T14:04:03;29.17;;;18.25;;
27804;SDS011;15183;51.350;11.102;2022-10-31T14:07:10;31.05;;;18.42;;
27804;SDS011;15183;51.350;11.102;2022-10-31T14:12:34;31.45;;;17.73;;
27804;SDS011;15183;51.350;11.102;2022-10-31T14:15:23;26.95;;;17.08;;
27804;SDS011;15183;51.350;11.102;2022-10-31T14:17:59;30.92;;;17.55;;
27804;SDS011;15183;51.350;11.102;2022-10-31T14:20:38;31.13;;;18.40;;
27804;SDS011;15183;51.350;11.102;2022-10-31T14:23:50;27.63;;;17.25;;
27804;SDS011;15183;51.350;11.102;2022-10-31T14:28:53;33.92;;;18.50;;
27804;SDS011;15183;51.350;11.102;2022-10-31T14:31:43;29.23;;;17.83;;
27804;SDS011;15183;51.350;11.102;2022-10-31T14:45:53;25.67;;;17.05;;
27804;SDS011;15183;51.350;11.102;2022-10-31T14:51:12;30.20;;;19.27;;
27804;SDS011;15183;51.350;11.102;2022-10-31T14:53:51;26.77;;;18.45;;
27804;SDS011;15183;51.350;11.102;2022-10-31T14:56:25;29.95;;;18.45;;
27804;SDS011;15183;51.350;11.102;2022-10-31T14:58:58;26.75;;;16.88;;
27804;SDS011;15183;51.350;11.102;2022-10-31T15:01:36;25.52;;;15.45;;
27804;SDS011;15183;51.350;11.102;2022-10-31T15:04:05;26.55;;;16.08;;
27804;SDS011;15183;51.350;11.102;2022-10-31T15:07:12;22.77;;;14.38;;
27804;SDS011;15183;51.350;11.102;2022-10-31T15:10:01;28.67;;;17.33;;
27804;SDS011;15183;51.350;11.102;2022-10-31T15:12:32;31.90;;;18.38;;
27804;SDS011;15183;51.350;11.102;2022-10-31T15:15:20;33.50;;;18.17;;
27804;SDS011;15183;51.350;11.102;2022-10-31T15:17:57;29.55;;;17.33;;
27804;SDS011;15183;51.350;11.102;2022-10-31T15:20:26;33.95;;;18.70;;
27804;SDS011;15183;51.350;11.102;2022-10-31T15:22:56;33.88;;;21.77;;
27804;SDS011;15183;51.350;11.102;2022-10-31T15:25:30;37.72;;;23.25;;
27804;SDS011;15183;51.350;11.102;2022-10-31T15:28:00;36.22;;;21.55;;
27804;SDS011;15183;51.350;11.102;2022-10-31T15:30:27;32.55;;;21.40;;
27804;SDS011;15183;51.350;11.102;2022-10-31T15:32:54;30.73;;;19.25;;
27804;SDS011;15183;51.350;11.102;2022-10-31T15:35:28;27.02;;;17.10;;
27804;SDS011;15183;51.350;11.102;2022-10-31T15:37:56;28.90;;;18.63;;
27804;SDS011;15183;51.350;11.102;2022-10-31T15:40:25;34.63;;;20.52;;
27804;SDS011;15183;51.350;11.102;2022-10-31T15:43:00;33.10;;;19.65;;
27804;SDS011;15183;51.350;11.102;2022-10-31T15:45:32;30.63;;;18.83;;
27804;SDS011;15183;51.350;11.102;2022-10-31T15:48:00;26.58;;;17.25;;
27804;SDS011;15183;51.350;11.102;2022-10-31T15:50:40;27.88;;;17.67;;
27804;SDS011;15183;51.350;11.102;2022-10-31T15:53:17;29.98;;;20.20;;
27804;SDS011;15183;51.350;11.102;2022-10-31T15:55:48;35.92;;;21.00;;
27804;SDS011;15183;51.350;11.102;2022-10-31T15:58:23;33.80;;;20.30;;
27804;SDS011;15183;51.350;11.102;2022-10-31T16:01:01;43.78;;;25.80;;
27804;SDS011;15183;51.350;11.102;2022-10-31T16:03:32;35.58;;;20.70;;
27804;SDS011;15183;51.350;11.102;2022-10-31T16:06:00;33.50;;;20.13;;
27804;SDS011;15183;51.350;11.102;2022-10-31T16:10:57;37.17;;;20.48;;
27804;SDS011;15183;51.350;11.102;2022-10-31T16:13:40;32.85;;;20.65;;
27804;SDS011;15183;51.350;11.102;2022-10-31T16:16:25;33.30;;;18.45;;
27804;SDS011;15183;51.350;11.102;2022-10-31T16:18:53;40.83;;;23.77;;
27804;SDS011;15183;51.350;11.102;2022-10-31T16:21:22;45.50;;;24.00;;
27804;SDS011;15183;51.350;11.102;2022-10-31T16:24:01;31.75;;;20.60;;
27804;SDS011;15183;51.350;11.102;2022-10-31T16:26:53;30.88;;;19.95;;
27804;SDS011;15183;51.350;11.102;2022-10-31T16:29:36;49.88;;;28.45;;
27804;SDS011;15183;51.350;11.102;2022-10-31T16:35:34;52.03;;;29.55;;
27804;SDS011;15183;51.350;11.102;2022-10-31T16:38:03;38.90;;;23.25;;
27804;SDS011;15183;51.350;11.102;2022-10-31T16:40:31;38.45;;;23.15;;
27804;SDS011;15183;51.350;11.102;2022-10-31T16:42:59;38.33;;;22.27;;
27804;SDS011;15183;51.350;11.102;2022-10-31T16:45:27;36.65;;;23.15;;
27804;SDS011;15183;51.350;11.102;2022-10-31T16:48:02;34.38;;;20.90;;
27804;SDS011;15183;51.350;11.102;2022-10-31T16:50:41;33.65;;;21.75;;
27804;SDS011;15183;51.350;11.102;2022-10-31T16:53:09;40.53;;;23.45;;
27804;SDS011;15183;51.350;11.102;2022-10-31T16:55:41;36.50;;;22.23;;
27804;SDS011;15183;51.350;11.102;2022-10-31T16:58:23;41.65;;;23.83;;
27804;SDS011;15183;51.350;11.102;2022-10-31T17:00:53;40.95;;;22.80;;
27804;SDS011;15183;51.350;11.102;2022-10-31T17:03:19;33.05;;;21.90;;
27804;SDS011;15183;51.350;11.102;2022-10-31T17:05:46;41.10;;;23.08;;
27804;SDS011;15183;51.350;11.102;2022-10-31T17:08:13;38.03;;;23.63;;
27804;SDS011;15183;51.350;11.102;2022-10-31T17:10:39;44.22;;;24.35;;
27804;SDS011;15183;51.350;11.102;2022-10-31T17:13:10;42.83;;;28.17;;
27804;SDS011;15183;51.350;11.102;2022-10-31T17:15:45;41.97;;;28.55;;
27804;SDS011;15183;51.350;11.102;2022-10-31T17:18:15;40.55;;;26.75;;
27804;SDS011;15183;51.350;11.102;2022-10-31T17:20:43;44.95;;;28.77;;
27804;SDS011;15183;51.350;11.102;2022-10-31T17:23:11;46.90;;;29.13;;
27804;SDS011;15183;51.350;11.102;2022-10-31T17:25:40;42.30;;;27.05;;
27804;SDS011;15183;51.350;11.102;2022-10-31T17:28:09;38.30;;;25.55;;